Time;durP1;ratioP1;P1;durP2;ratioP2;P2;SDS_P1;SDS_P2;PMS_P1;PMS_P2;Temp;Humidity;BMP_temperature;BMP_pressure;BME280_temperature;BME280_humidity;BME280_pressure;Samples;Min_cycle;Max_cycle;Signal;HPM_P1;HPM_P2
2020/12/30 00:02:11;;;;;;;64.43;5.15;;;;;;;1.82;75.12;94692.72;5048939;28;20697;-67
2020/12/30 00:04:37;;;;;;;58.70;4.90;;;;;;;1.81;75.22;94698.41;5049059;28;20110;-66
2020/12/30 00:07:04;;;;;;;59.58;5.38;;;;;;;1.75;75.41;94692.38;5048709;28;20048;-66
2020/12/30 00:09:30;;;;;;;70.47;5.65;;;;;;;1.76;75.28;94698.53;5049194;28;20059;-66
2020/12/30 00:11:55;;;;;;;74.45;5.45;;;;;;;1.76;75.19;94693.94;5049244;28;20049;-66
2020/12/30 00:14:21;;;;;;;58.38;4.90;;;;;;;1.79;75.04;94695.25;5047963;28;20060;-66
2020/12/30 00:16:47;;;;;;;59.28;4.93;;;;;;;1.81;75.24;94693.84;5048586;28;20040;-66
2020/12/30 00:19:13;;;;;;;51.95;4.75;;;;;;;1.84;75.11;94697.81;5048148;28;20053;-66
2020/12/30 00:21:39;;;;;;;67.68;4.88;;;;;;;1.87;74.87;94704.44;5049021;28;20052;-66
2020/12/30 00:24:06;;;;;;;54.55;4.47;;;;;;;1.88;74.67;94708.72;5048858;28;20052;-66
2020/12/30 00:26:32;;;;;;;62.45;4.60;;;;;;;1.91;74.97;94710.81;5048529;28;20040;-66
2020/12/30 00:28:58;;;;;;;52.08;4.35;;;;;;;1.91;75.15;94716.19;5049015;28;20530;-66
2020/12/30 00:31:24;;;;;;;56.88;4.47;;;;;;;1.89;74.67;94716.50;5048681;28;20048;-66
2020/12/30 00:33:50;;;;;;;83.32;5.82;;;;;;;1.91;74.30;94724.22;5048700;28;20048;-66
2020/12/30 00:36:16;;;;;;;56.78;4.13;;;;;;;1.86;73.92;94724.34;5048216;28;20055;-66
2020/12/30 00:38:43;;;;;;;45.35;4.35;;;;;;;1.80;74.12;94723.66;5048882;28;20053;-66
2020/12/30 00:41:13;;;;;;;49.95;4.43;;;;;;;1.78;74.76;94729.34;5048577;28;20049;-66
2020/12/30 00:43:39;;;;;;;35.83;3.95;;;;;;;1.73;75.00;94734.81;5050212;28;20045;-66
2020/12/30 00:46:05;;;;;;;21.60;3.42;;;;;;;1.70;75.24;94732.72;5051793;28;20045;-66
2020/12/30 00:48:31;;;;;;;34.08;3.78;;;;;;;1.65;75.31;94740.09;5051749;28;20542;-66
2020/12/30 00:50:57;;;;;;;15.73;3.47;;;;;;;1.61;75.25;94747.94;5052076;28;20049;-66
2020/12/30 00:53:23;;;;;;;21.25;3.35;;;;;;;1.59;75.34;94752.81;5051484;28;20624;-66
2020/12/30 00:55:49;;;;;;;33.25;3.80;;;;;;;1.54;75.44;94748.34;5051930;28;20041;-65
2020/12/30 00:58:15;;;;;;;36.25;4.03;;;;;;;1.50;75.06;94755.41;5051276;28;20049;-66
2020/12/30 01:00:41;;;;;;;39.08;3.97;;;;;;;1.46;74.56;94753.63;5051685;28;20044;-65
2020/12/30 01:03:07;;;;;;;29.60;3.50;;;;;;;1.38;74.43;94757.00;5051175;28;20037;-66
2020/12/30 01:05:33;;;;;;;32.70;3.60;;;;;;;1.30;74.39;94756.63;5051764;28;20048;-66
2020/12/30 01:07:59;;;;;;;26.52;3.38;;;;;;;1.25;74.66;94759.41;5051617;28;20523;-65
2020/12/30 01:10:25;;;;;;;37.15;3.67;;;;;;;1.21;75.42;94760.28;5051183;28;20045;-65
2020/12/30 01:12:51;;;;;;;41.35;3.47;;;;;;;1.17;75.35;94765.44;5051277;28;20049;-66
2020/12/30 01:15:18;;;;;;;28.63;3.78;;;;;;;1.15;75.82;94764.97;5051117;28;20515;-66
2020/12/30 01:17:44;;;;;;;38.65;3.50;;;;;;;1.14;75.91;94763.34;5051359;28;20455;-65
2020/12/30 01:20:10;;;;;;;46.28;3.65;;;;;;;1.14;75.91;94767.91;5051013;28;20049;-66
2020/12/30 01:22:36;;;;;;;33.40;3.38;;;;;;;1.13;75.91;94772.50;5051280;28;20519;-65
2020/12/30 01:25:02;;;;;;;35.47;3.35;;;;;;;1.11;76.36;94758.59;5050710;28;20073;-66
2020/12/30 01:27:27;;;;;;;29.83;3.15;;;;;;;1.11;76.67;94771.22;5051271;28;20059;-65
2020/12/30 01:29:53;;;;;;;27.50;2.50;;;;;;;1.10;76.67;94770.41;5051272;28;20069;-66
2020/12/30 01:32:20;;;;;;;28.77;2.90;;;;;;;1.10;76.57;94773.09;5050427;28;20049;-65
2020/12/30 01:34:46;;;;;;;36.45;3.20;;;;;;;1.12;76.54;94770.13;5051198;28;20448;-66
2020/12/30 01:37:12;;;;;;;39.35;2.80;;;;;;;1.12;76.42;94765.53;5050762;28;20072;-66
2020/12/30 01:39:38;;;;;;;33.75;3.05;;;;;;;1.13;76.58;94769.81;5050987;28;20056;-66
2020/12/30 01:42:04;;;;;;;20.73;2.63;;;;;;;1.13;76.45;94775.16;5050595;28;20060;-66
2020/12/30 01:44:30;;;;;;;20.25;2.67;;;;;;;1.12;76.27;94770.13;5051011;28;20103;-66
2020/12/30 01:46:57;;;;;;;35.47;3.75;;;;;;;1.11;76.11;94779.25;5048371;28;20060;-66
2020/12/30 01:49:25;;;;;;;28.92;2.97;;;;;;;1.09;75.94;94771.47;5050516;28;20524;-66
2020/12/30 01:51:52;;;;;;;39.63;3.05;;;;;;;1.07;75.73;94773.69;5050976;28;20106;-66
2020/12/30 01:54:19;;;;;;;36.03;3.10;;;;;;;1.06;76.28;94780.13;5050374;28;20055;-66
2020/12/30 01:56:46;;;;;;;26.60;2.72;;;;;;;1.02;76.60;94776.44;5050903;28;20044;-65
2020/12/30 01:59:15;;;;;;;31.83;3.08;;;;;;;1.02;76.70;94776.44;5050268;28;20045;-66
2020/12/30 02:01:43;;;;;;;45.28;3.58;;;;;;;1.01;76.76;94781.03;5050753;28;20037;-66
2020/12/30 02:04:10;;;;;;;44.67;3.30;;;;;;;1.02;77.03;94781.81;5050273;28;20052;-66
2020/12/30 02:06:38;;;;;;;28.25;3.25;;;;;;;0.99;76.63;94780.53;5050907;28;20040;-66
2020/12/30 02:09:06;;;;;;;27.70;2.83;;;;;;;1.01;76.77;94785.59;5050126;28;20041;-66
2020/12/30 02:11:33;;;;;;;32.97;3.08;;;;;;;0.98;76.40;94780.81;5050737;28;20057;-65
2020/12/30 02:14:04;;;;;;;34.50;3.20;;;;;;;0.95;76.21;94781.41;5050678;28;20041;-66
2020/12/30 02:16:30;;;;;;;27.38;2.63;;;;;;;0.91;76.53;94780.41;5050079;28;20544;-66
2020/12/30 02:18:58;;;;;;;23.85;2.83;;;;;;;0.88;76.71;94780.97;5050675;28;20048;-66
2020/12/30 02:21:24;;;;;;;35.80;2.85;;;;;;;0.86;76.74;94783.97;5050084;28;20048;-66
2020/12/30 02:23:52;;;;;;;35.83;3.28;;;;;;;0.85;76.68;94782.38;5049977;28;20045;-66
2020/12/30 02:26:19;;;;;;;33.75;3.40;;;;;;;0.87;76.79;94784.75;5032261;28;20057;-66
2020/12/30 02:28:45;;;;;;;66.88;4.18;;;;;;;0.77;76.24;94775.81;5029310;28;20045;-66
2020/12/30 02:31:11;;;;;;;18.30;2.63;;;;;;;0.73;76.25;94782.84;5029999;28;20041;-66
2020/12/30 02:33:37;;;;;;;34.03;3.40;;;;;;;0.67;76.19;94784.00;5030214;28;20053;-65
2020/12/30 02:36:03;;;;;;;37.53;3.83;;;;;;;0.64;76.31;94779.25;5030525;28;20056;-66
2020/12/30 02:38:29;;;;;;;22.83;2.47;;;;;;;0.64;76.71;94778.47;5034497;28;20055;-66
2020/12/30 02:40:59;;;;;;;36.30;3.35;;;;;;;0.61;77.00;94782.50;5034487;28;20528;-66
2020/12/30 02:43:26;;;;;;;22.15;3.03;;;;;;;0.58;77.03;94783.13;5033864;28;20091;-66
2020/12/30 02:45:52;;;;;;;41.15;3.42;;;;;;;0.56;77.22;94787.94;5038120;28;20052;-66
2020/12/30 02:48:18;;;;;;;36.05;3.47;;;;;;;0.50;77.17;94783.78;5053685;28;20545;-66
2020/12/30 02:50:44;;;;;;;41.65;3.85;;;;;;;0.47;77.34;94785.16;5054128;28;20041;-66
2020/12/30 02:53:09;;;;;;;38.67;3.30;;;;;;;0.44;77.81;94780.38;5053356;28;20068;-66
2020/12/30 02:55:35;;;;;;;32.85;3.13;;;;;;;0.40;78.11;94778.56;5054244;28;20064;-66
2020/12/30 02:58:01;;;;;;;37.15;3.58;;;;;;;0.38;77.62;94783.44;5053601;28;20049;-66
2020/12/30 03:00:28;;;;;;;36.05;3.10;;;;;;;0.36;77.40;94782.91;5054189;28;20114;-66
2020/12/30 03:02:54;;;;;;;26.92;3.20;;;;;;;0.35;77.27;94784.00;5053862;28;20098;-66
2020/12/30 03:05:20;;;;;;;24.38;2.63;;;;;;;0.37;77.84;94792.56;5053501;28;20048;-66
2020/12/30 03:07:47;;;;;;;42.33;4.43;;;;;;;0.41;78.06;94798.91;5053976;28;20041;-65
2020/12/30 03:10:13;;;;;;;28.05;2.90;;;;;;;0.48;78.28;94799.34;5053502;28;20060;-66
2020/12/30 03:12:39;;;;;;;40.05;3.45;;;;;;;0.52;78.21;94800.31;5053861;28;20045;-66
2020/12/30 03:15:05;;;;;;;37.33;3.55;;;;;;;0.58;78.34;94804.53;5053476;28;20045;-66
2020/12/30 03:17:32;;;;;;;40.80;3.65;;;;;;;0.66;78.24;94806.53;5053444;28;20041;-65
2020/12/30 03:19:58;;;;;;;34.35;3.20;;;;;;;0.74;78.16;94807.75;5053669;28;20037;-66
2020/12/30 03:22:24;;;;;;;23.60;2.70;;;;;;;0.81;77.99;94810.06;5053257;28;20041;-66
2020/12/30 03:24:49;;;;;;;30.25;2.72;;;;;;;0.87;77.77;94807.00;5053401;28;20049;-66
2020/12/30 03:27:15;;;;;;;38.20;3.55;;;;;;;0.95;77.71;94808.22;5053149;28;20520;-66
2020/12/30 03:29:41;;;;;;;35.00;3.20;;;;;;;1.02;77.54;94803.25;5053553;28;20045;-66
2020/12/30 03:32:07;;;;;;;26.45;3.13;;;;;;;1.08;76.80;94802.06;5052753;28;20118;-66
2020/12/30 03:34:34;;;;;;;29.17;2.75;;;;;;;1.12;77.00;94802.28;5053539;28;20493;-65
2020/12/30 03:37:00;;;;;;;27.80;2.90;;;;;;;1.15;77.23;94805.19;5053421;28;20450;-66
2020/12/30 03:39:26;;;;;;;22.88;2.95;;;;;;;1.19;76.95;94795.44;5053224;28;20068;-66
2020/12/30 03:41:52;;;;;;;28.77;3.30;;;;;;;1.24;76.76;94795.34;5053149;28;20052;-66
2020/12/30 03:44:18;;;;;;;37.65;3.20;;;;;;;1.25;76.89;94807.66;5052898;28;20408;-66
2020/12/30 03:46:44;;;;;;;36.33;3.55;;;;;;;1.27;77.18;94802.78;5052605;28;20515;-65
2020/12/30 03:49:10;;;;;;;28.67;2.95;;;;;;;1.28;76.98;94804.38;5051393;28;20055;-66
2020/12/30 03:51:36;;;;;;;44.78;3.72;;;;;;;1.33;76.81;94800.03;5053067;28;20045;-66
2020/12/30 03:54:02;;;;;;;29.92;3.05;;;;;;;1.35;76.14;94795.13;5052649;28;20056;-66
2020/12/30 03:56:29;;;;;;;36.25;3.28;;;;;;;1.38;75.84;94806.06;5053153;28;20554;-66
2020/12/30 03:58:55;;;;;;;28.60;3.05;;;;;;;1.43;76.12;94807.88;5053016;28;20133;-66
2020/12/30 04:01:21;;;;;;;34.50;3.38;;;;;;;1.45;75.86;94800.31;5052535;28;20053;-66
2020/12/30 04:03:47;;;;;;;44.30;3.67;;;;;;;1.50;75.84;94813.63;5052773;28;20041;-65
2020/12/30 04:06:13;;;;;;;31.33;3.13;;;;;;;1.51;75.89;94804.47;5052420;28;20063;-65
2020/12/30 04:08:39;;;;;;;35.58;3.20;;;;;;;1.51;75.35;94805.31;5052591;28;20045;-66
2020/12/30 04:11:05;;;;;;;23.90;2.83;;;;;;;1.52;75.25;94808.78;5052330;28;20061;-66
2020/12/30 04:13:31;;;;;;;33.15;2.95;;;;;;;1.51;75.72;94807.16;5052747;28;20068;-65
2020/12/30 04:15:57;;;;;;;25.98;3.13;;;;;;;1.50;75.88;94803.69;5052263;28;20427;-65
2020/12/30 04:18:23;;;;;;;25.73;3.28;;;;;;;1.53;75.67;94802.31;5052056;28;20054;-66
2020/12/30 04:20:49;;;;;;;41.42;3.63;;;;;;;1.52;76.12;94806.09;5052658;28;20091;-66
2020/12/30 04:23:15;;;;;;;31.17;3.20;;;;;;;1.49;76.46;94804.00;5052021;28;20045;-66
2020/12/30 04:25:47;;;;;;;29.95;3.15;;;;;;;1.49;76.51;94802.09;5052555;28;20068;-65
2020/12/30 04:28:13;;;;;;;45.20;4.00;;;;;;;1.50;76.25;94808.25;5051906;28;20048;-66
2020/12/30 04:30:39;;;;;;;40.95;3.85;;;;;;;1.50;75.85;94806.38;5052131;28;20128;-65
2020/12/30 04:33:05;;;;;;;31.90;3.40;;;;;;;1.49;75.65;94812.03;5051065;28;20056;-66
2020/12/30 04:35:31;;;;;;;29.63;3.40;;;;;;;1.48;75.44;94815.81;5051958;28;20106;-66
2020/12/30 04:37:57;;;;;;;46.70;4.22;;;;;;;1.48;75.40;94815.81;5051123;28;20048;-65
2020/12/30 04:40:24;;;;;;;41.28;3.92;;;;;;;1.48;75.63;94808.56;5051677;28;20049;-66
2020/12/30 04:42:52;;;;;;;45.05;5.25;;;;;;;1.51;75.74;94815.22;5052057;28;20041;-66
2020/12/30 04:45:20;;;;;;;28.40;3.83;;;;;;;1.53;75.68;94818.41;5051647;28;20045;-66
2020/12/30 04:47:48;;;;;;;35.90;4.13;;;;;;;1.54;75.82;94826.16;5051549;28;20075;-65
2020/12/30 04:50:14;;;;;;;29.65;3.80;;;;;;;1.56;75.92;94823.94;5051697;28;20041;-66
2020/12/30 04:52:42;;;;;;;42.95;4.13;;;;;;;1.56;75.72;94823.94;5051945;28;20439;-66
2020/12/30 04:55:08;;;;;;;28.33;3.58;;;;;;;1.56;75.78;94823.94;5051518;28;20447;-66
2020/12/30 04:58:04;;;;;;;39.85;4.35;;;;;;;1.56;75.73;94812.44;5051757;28;20044;-65
2020/12/30 05:00:31;;;;;;;52.13;4.43;;;;;;;1.54;75.49;94822.66;5051070;28;20044;-66
2020/12/30 05:03:00;;;;;;;25.45;3.58;;;;;;;1.55;75.75;94826.94;5051096;28;20037;-66
2020/12/30 05:05:26;;;;;;;35.95;4.03;;;;;;;1.50;75.36;94819.78;5051585;28;20037;-66
2020/12/30 05:07:55;;;;;;;41.25;4.55;;;;;;;1.49;75.34;94828.13;5051762;28;20063;-66
2020/12/30 05:10:22;;;;;;;29.42;3.95;;;;;;;1.50;75.67;94827.03;5051215;28;20106;-66
2020/12/30 05:12:48;;;;;;;32.25;4.00;;;;;;;1.50;75.84;94824.34;5051689;28;20054;-65
2020/12/30 05:15:14;;;;;;;32.95;3.70;;;;;;;1.49;75.48;94841.56;5051202;28;20072;-66
2020/12/30 05:17:40;;;;;;;36.47;3.80;;;;;;;1.43;75.65;94840.06;5051100;28;20071;-66
2020/12/30 05:20:09;;;;;;;28.45;3.53;;;;;;;1.29;75.55;94846.19;5051014;28;20041;-66
2020/12/30 05:22:35;;;;;;;27.77;3.75;;;;;;;1.23;75.89;94846.59;5051361;28;20090;-65
2020/12/30 05:25:04;;;;;;;38.67;4.13;;;;;;;1.22;76.11;94853.84;5050952;28;20064;-67
2020/12/30 05:27:30;;;;;;;39.03;3.50;;;;;;;1.23;76.24;94851.94;5051478;28;20056;-65
2020/12/30 05:29:58;;;;;;;23.83;3.42;;;;;;;1.27;76.50;94859.09;5051283;28;20041;-65
2020/12/30 05:32:25;;;;;;;29.42;3.15;;;;;;;1.29;76.63;94867.63;5049969;28;20083;-66
2020/12/30 05:34:53;;;;;;;36.22;3.63;;;;;;;1.29;76.42;94859.59;5051319;28;20052;-66
2020/12/30 05:37:30;;;;;;;18.20;3.08;;;;;;;1.28;76.68;94874.09;5050572;28;20045;-66
2020/12/30 05:39:57;;;;;;;34.38;3.75;;;;;;;1.30;76.65;94879.97;5051170;28;20041;-66
2020/12/30 05:42:23;;;;;;;27.13;3.47;;;;;;;1.21;76.28;94881.75;5050322;28;20400;-66
2020/12/30 05:44:50;;;;;;;55.15;4.28;;;;;;;1.20;76.27;94876.66;5050930;28;20045;-66
2020/12/30 05:47:17;;;;;;;17.08;2.83;;;;;;;1.11;76.36;94884.59;5049647;28;20496;-66
2020/12/30 05:49:45;;;;;;;40.28;3.60;;;;;;;1.13;76.75;94879.72;5050958;28;20048;-66
2020/12/30 05:52:12;;;;;;;28.30;3.15;;;;;;;1.03;76.65;94887.94;5050489;28;20110;-66
2020/12/30 05:54:38;;;;;;;30.23;3.20;;;;;;;1.04;76.93;94886.84;5050990;28;20091;-66
2020/12/30 05:57:25;;;;;;;34.22;3.42;;;;;;;1.12;77.19;94899.59;5050362;28;20061;-66
2020/12/30 05:59:53;;;;;;;21.40;2.58;;;;;;;1.09;77.10;94900.16;5050894;28;20049;-66
2020/12/30 06:02:25;;;;;;;24.98;3.05;;;;;;;1.04;77.28;94900.25;5050193;28;20064;-66
2020/12/30 06:04:53;;;;;;;30.25;2.80;;;;;;;1.14;77.43;94902.75;5050824;28;20052;-66
2020/12/30 06:07:19;;;;;;;29.52;3.25;;;;;;;1.12;77.24;94904.94;5050304;28;20040;-66
2020/12/30 06:09:51;;;;;;;36.72;3.17;;;;;;;1.16;77.26;94922.03;5050661;28;20071;-66
2020/12/30 06:12:23;;;;;;;30.02;2.92;;;;;;;1.19;77.23;94926.81;5049379;28;20510;-66
2020/12/30 06:14:49;;;;;;;35.15;3.58;;;;;;;1.18;77.45;94924.44;5050635;28;20399;-66
2020/12/30 06:17:25;;;;;;;24.08;3.08;;;;;;;1.09;77.04;94923.50;5049711;28;20106;-66
2020/12/30 06:19:53;;;;;;;39.88;3.22;;;;;;;1.06;77.39;94922.22;5050391;28;20091;-66
2020/12/30 06:22:21;;;;;;;25.27;3.08;;;;;;;1.13;77.42;94930.66;5050133;28;20067;-66
2020/12/30 06:24:50;;;;;;;31.55;3.08;;;;;;;1.21;77.42;94918.50;5050567;28;20041;-66
2020/12/30 06:27:19;;;;;;;39.30;3.20;;;;;;;1.20;76.89;94928.41;5049904;28;20094;-66
2020/12/30 06:29:45;;;;;;;32.58;2.60;;;;;;;1.21;76.94;94932.69;5050804;28;20544;-66
2020/12/30 06:32:24;;;;;;;32.50;3.10;;;;;;;1.23;76.76;94943.91;5049811;28;20052;-66
2020/12/30 06:34:49;;;;;;;24.58;2.47;;;;;;;1.17;76.84;94934.34;5050658;28;20045;-66
2020/12/30 06:37:25;;;;;;;38.85;2.95;;;;;;;1.14;76.42;94940.28;5050060;28;20569;-66
2020/12/30 06:40:33;;;;;;;34.28;2.72;;;;;;;1.02;76.46;94942.63;5050392;28;20044;-66
2020/12/30 06:43:01;;;;;;;27.48;2.65;;;;;;;1.02;76.49;94939.97;5050256;28;20037;-66
2020/12/30 06:45:52;;;;;;;38.70;2.75;;;;;;;1.06;76.53;94942.88;5050090;28;20069;-66
2020/12/30 06:48:22;;;;;;;32.22;2.65;;;;;;;1.03;76.72;94949.59;5029887;28;20045;-66
2020/12/30 06:50:51;;;;;;;30.40;2.72;;;;;;;1.06;76.92;94951.69;5030382;28;20496;-66
2020/12/30 06:53:25;;;;;;;30.50;2.63;;;;;;;1.12;77.06;94958.56;5029990;28;20045;-66
2020/12/30 06:55:52;;;;;;;35.75;3.55;;;;;;;1.16;77.09;94958.78;5030414;28;20041;-66
2020/12/30 06:58:43;;;;;;;32.33;2.88;;;;;;;1.21;77.24;94956.81;5029873;28;20049;-64
2020/12/30 07:01:10;;;;;;;37.28;3.00;;;;;;;1.26;77.30;94956.75;5030046;28;20077;-66
2020/12/30 07:03:36;;;;;;;29.23;2.47;;;;;;;1.28;76.82;94961.81;5030341;28;20053;-65
2020/12/30 07:06:28;;;;;;;27.67;2.75;;;;;;;1.34;76.86;94965.19;5029919;28;20069;-64
2020/12/30 07:08:57;;;;;;;29.80;2.85;;;;;;;1.38;76.42;94966.22;5030164;28;20057;-65
2020/12/30 07:11:42;;;;;;;27.55;2.53;;;;;;;1.43;76.26;94963.44;5029798;28;20423;-66
2020/12/30 07:14:09;;;;;;;27.30;2.55;;;;;;;1.47;75.74;94964.44;5029959;28;20037;-66
2020/12/30 07:16:36;;;;;;;30.15;2.67;;;;;;;1.50;75.59;94963.84;5039794;28;20508;-64
2020/12/30 07:19:09;;;;;;;22.08;2.47;;;;;;;1.52;75.40;94972.41;5049648;28;20041;-64
2020/12/30 07:21:47;;;;;;;41.63;3.20;;;;;;;1.58;75.50;94973.13;5050163;28;20049;-64
2020/12/30 07:24:18;;;;;;;26.67;2.90;;;;;;;1.61;75.92;94970.63;5053102;28;20075;-64
2020/12/30 07:26:47;;;;;;;34.13;3.25;;;;;;;1.61;76.13;94970.63;5053676;28;20041;-64
2020/12/30 07:29:13;;;;;;;49.78;3.95;;;;;;;1.62;76.20;94966.88;5053255;28;20052;-64
2020/12/30 07:31:40;;;;;;;26.05;3.20;;;;;;;1.66;75.91;94978.59;5053578;28;20075;-64
2020/12/30 07:34:14;;;;;;;31.40;3.30;;;;;;;1.68;75.96;94979.13;5052872;28;20102;-65
2020/12/30 07:36:40;;;;;;;39.08;3.45;;;;;;;1.65;75.98;94987.72;5053572;28;20052;-64
2020/12/30 07:39:07;;;;;;;34.40;3.60;;;;;;;1.66;75.85;94992.00;5052822;28;20052;-67
2020/12/30 07:41:36;;;;;;;41.78;3.80;;;;;;;1.67;75.73;94996.31;5053323;28;20500;-64
2020/12/30 07:44:04;;;;;;;26.75;2.88;;;;;;;1.69;75.83;94999.47;5052748;28;20101;-64
2020/12/30 07:46:30;;;;;;;30.67;2.92;;;;;;;1.69;75.50;94999.47;5052703;28;20496;-66
2020/12/30 07:49:06;;;;;;;32.75;2.88;;;;;;;1.73;75.31;95000.50;5053010;28;20052;-64
2020/12/30 07:51:32;;;;;;;34.17;3.25;;;;;;;1.74;75.64;95004.75;5053172;28;20094;-64
2020/12/30 07:53:58;;;;;;;29.65;2.90;;;;;;;1.78;75.62;95003.09;5053153;28;20725;-64
2020/12/30 07:56:24;;;;;;;37.05;3.45;;;;;;;1.79;74.96;95004.69;5052521;28;20503;-64
2020/12/30 07:58:51;;;;;;;44.45;3.63;;;;;;;1.88;75.12;95012.03;5053071;28;20037;-64
2020/12/30 08:01:18;;;;;;;20.77;2.92;;;;;;;1.91;75.09;95016.81;5052591;28;20052;-64
2020/12/30 08:03:44;;;;;;;47.50;4.03;;;;;;;1.93;74.27;95012.75;5052863;28;20069;-65
2020/12/30 08:06:10;;;;;;;27.38;3.20;;;;;;;2.01;74.33;95016.66;5052435;28;20052;-64
2020/12/30 08:08:42;;;;;;;23.55;3.10;;;;;;;2.07;74.51;95016.25;5052862;28;20045;-65
2020/12/30 08:11:08;;;;;;;27.25;3.33;;;;;;;2.18;74.63;95011.47;5052467;28;20049;-64
2020/12/30 08:13:35;;;;;;;48.13;4.35;;;;;;;2.46;74.40;95017.69;5052314;28;20503;-66
2020/12/30 08:16:01;;;;;;;36.30;3.55;;;;;;;2.82;72.60;95020.44;5051995;28;20043;-66
2020/12/30 08:18:27;;;;;;;26.38;2.88;;;;;;;3.03;71.80;95028.06;5049438;28;20041;-66
2020/12/30 08:20:53;;;;;;;18.42;2.75;;;;;;;3.19;71.31;95028.53;5052371;28;20041;-66
2020/12/30 08:23:19;;;;;;;24.42;2.90;;;;;;;3.22;71.28;95025.22;5051651;28;20099;-66
2020/12/30 08:25:48;;;;;;;25.92;2.95;;;;;;;3.09;69.81;95030.34;5052012;28;20045;-66
2020/12/30 08:28:14;;;;;;;24.73;2.85;;;;;;;3.00;70.40;95031.34;5051367;28;20522;-66
2020/12/30 08:30:42;;;;;;;24.30;3.40;;;;;;;2.96;70.90;95041.13;5051954;28;20041;-66
2020/12/30 08:33:11;;;;;;;38.33;4.15;;;;;;;2.84;70.04;95041.63;5048373;28;20412;-64
2020/12/30 08:35:46;;;;;;;43.17;4.00;;;;;;;2.78;70.00;95051.69;5051165;28;20492;-63
2020/12/30 08:38:13;;;;;;;36.38;4.38;;;;;;;2.80;69.86;95049.50;5049420;28;20057;-64
2020/12/30 08:40:41;;;;;;;28.55;4.57;;;;;;;2.79;69.83;95052.50;5051703;28;20045;-64
2020/12/30 08:43:27;;;;;;;37.28;5.32;;;;;;;2.88;70.23;95056.06;5048424;28;20459;-66
2020/12/30 08:46:02;;;;;;;48.40;4.82;;;;;;;2.94;70.41;95056.75;5049465;28;21375;-64
2020/12/30 08:48:31;;;;;;;58.63;5.18;;;;;;;2.92;69.70;95058.94;5051682;28;20578;-65
2020/12/30 08:50:57;;;;;;;12.48;2.75;;;;;;;2.92;69.76;95067.78;5051998;28;20064;-64
2020/12/30 08:53:36;;;;;;;28.10;3.67;;;;;;;2.97;69.87;95074.97;5051371;28;20041;-64
2020/12/30 08:56:03;;;;;;;25.42;3.10;;;;;;;3.08;70.92;95070.97;5051409;28;20037;-65
2020/12/30 08:58:30;;;;;;;42.85;4.03;;;;;;;3.14;71.18;95077.84;5051918;28;20099;-68
2020/12/30 09:00:57;;;;;;;154.75;7.75;;;;;;;3.11;69.98;95081.94;5047198;28;20485;-67
2020/12/30 09:03:26;;;;;;;53.67;4.53;;;;;;;3.15;70.25;95082.13;5027671;28;20589;-64
2020/12/30 09:05:54;;;;;;;75.53;5.10;;;;;;;3.19;70.61;95085.81;5027441;28;20072;-65
2020/12/30 09:08:22;;;;;;;62.35;4.50;;;;;;;3.24;71.16;95087.59;5026893;28;20061;-65
2020/12/30 09:10:48;;;;;;;58.40;4.22;;;;;;;3.31;71.67;95083.38;5028078;28;20060;-65
2020/12/30 09:13:17;;;;;;;44.97;3.83;;;;;;;3.36;71.00;95088.66;5027604;28;20080;-65
2020/12/30 09:15:45;;;;;;;85.15;5.55;;;;;;;3.41;70.70;95085.06;5030614;28;20586;-64
2020/12/30 09:18:12;;;;;;;66.00;5.07;;;;;;;3.47;70.91;95091.13;5047706;28;20057;-64
2020/12/30 09:20:38;;;;;;;89.65;5.78;;;;;;;3.50;70.87;95082.44;5047519;28;20049;-64
2020/12/30 09:23:05;;;;;;;52.22;4.38;;;;;;;3.51;70.12;95078.66;5047175;28;20064;-64
2020/12/30 09:25:33;;;;;;;62.75;4.70;;;;;;;3.50;69.56;95077.88;5048089;28;20048;-64
2020/12/30 09:28:00;;;;;;;56.45;4.50;;;;;;;3.54;69.92;95088.78;5047831;28;20040;-65
2020/12/30 09:30:27;;;;;;;71.88;5.38;;;;;;;3.57;70.46;95072.84;5047424;28;20052;-64
2020/12/30 09:32:55;;;;;;;80.93;5.95;;;;;;;3.62;70.19;95070.03;5047535;28;20056;-64
2020/12/30 09:35:27;;;;;;;67.95;5.22;;;;;;;3.72;68.69;95079.78;5047419;28;20501;-65
2020/12/30 09:37:55;;;;;;;65.60;4.97;;;;;;;3.85;69.17;95073.53;5047805;28;20053;-64
2020/12/30 09:40:23;;;;;;;67.90;5.03;;;;;;;4.05;68.49;95076.81;5047039;28;20663;-64
2020/12/30 09:42:49;;;;;;;65.13;5.57;;;;;;;4.23;67.94;95072.31;5047833;28;20057;-64
2020/12/30 09:45:17;;;;;;;44.28;3.92;;;;;;;4.33;65.62;95075.56;5047049;28;20049;-64
2020/12/30 09:47:44;;;;;;;61.42;4.10;;;;;;;4.56;64.76;95080.91;5047306;28;20045;-64
2020/12/30 09:50:12;;;;;;;64.32;4.75;;;;;;;4.78;64.71;95078.13;5046853;28;20045;-64
2020/12/30 09:52:40;;;;;;;57.97;4.90;;;;;;;5.06;63.87;95080.59;5047523;28;20053;-64
2020/12/30 09:55:07;;;;;;;61.78;4.13;;;;;;;5.23;62.94;95088.75;5047123;28;20107;-65
2020/12/30 09:57:35;;;;;;;49.75;3.90;;;;;;;5.18;62.68;95075.41;5047401;28;20740;-64
2020/12/30 10:00:03;;;;;;;69.88;4.47;;;;;;;5.06;62.25;95083.28;5046923;28;20052;-67
2020/12/30 10:02:29;;;;;;;46.40;3.60;;;;;;;4.81;62.60;95076.72;5047219;28;20040;-65
2020/12/30 10:04:55;;;;;;;63.75;4.25;;;;;;;4.72;62.69;95074.78;5047527;28;20083;-65
2020/12/30 10:07:21;;;;;;;53.95;4.35;;;;;;;4.71;63.46;95072.41;5047051;28;20146;-65
2020/12/30 10:09:47;;;;;;;65.78;4.10;;;;;;;4.70;63.24;95079.72;5047329;28;20053;-65
2020/12/30 10:12:13;;;;;;;61.03;4.22;;;;;;;4.39;62.32;95077.03;5046817;28;20419;-65
2020/12/30 10:14:39;;;;;;;60.20;3.83;;;;;;;4.31;62.14;95069.69;5047394;28;20110;-65
2020/12/30 10:17:07;;;;;;;57.05;3.83;;;;;;;4.30;62.71;95073.50;5046492;28;20110;-65
2020/12/30 10:19:34;;;;;;;53.60;4.32;;;;;;;4.34;64.37;95069.06;5047459;28;20048;-65
2020/12/30 10:22:00;;;;;;;58.00;4.05;;;;;;;4.34;64.71;95069.06;5047181;28;20103;-65
2020/12/30 10:24:25;;;;;;;54.15;4.15;;;;;;;4.47;64.08;95066.59;5046736;28;20076;-65
2020/12/30 10:26:51;;;;;;;54.95;3.70;;;;;;;4.38;62.43;95070.03;5047306;28;20053;-65
2020/12/30 10:29:17;;;;;;;63.30;4.15;;;;;;;4.30;62.34;95056.53;5046743;28;20055;-65
2020/12/30 10:31:49;;;;;;;58.85;4.28;;;;;;;4.39;62.59;95063.56;5047315;28;20443;-65
2020/12/30 10:34:14;;;;;;;75.22;4.93;;;;;;;4.68;64.51;95059.53;5046526;28;20504;-65
2020/12/30 10:36:42;;;;;;;63.88;4.72;;;;;;;4.91;63.35;95058.38;5047288;28;20044;-65
2020/12/30 10:39:08;;;;;;;55.63;4.30;;;;;;;5.30;62.39;95064.78;5046477;28;20040;-65
2020/12/30 10:41:34;;;;;;;72.68;5.68;;;;;;;5.67;62.74;95057.97;5046975;28;20059;-65
2020/12/30 10:44:00;;;;;;;64.75;5.07;;;;;;;5.81;61.65;95059.72;5047080;28;20424;-65
2020/12/30 10:46:26;;;;;;;52.47;4.70;;;;;;;5.89;61.84;95067.81;5046224;28;20041;-67
2020/12/30 10:48:53;;;;;;;67.57;5.40;;;;;;;5.86;60.82;95060.34;5047013;28;20138;-66
2020/12/30 10:51:19;;;;;;;62.15;4.85;;;;;;;5.78;60.15;95058.44;5046338;28;20414;-66
2020/12/30 10:53:45;;;;;;;65.05;5.30;;;;;;;5.62;59.86;95054.63;5046961;28;20080;-64
2020/12/30 10:56:13;;;;;;;57.38;4.78;;;;;;;5.55;59.99;95052.41;5046452;28;20045;-65
2020/12/30 10:58:39;;;;;;;59.55;4.78;;;;;;;5.59;60.88;95053.38;5049900;28;20064;-65
2020/12/30 11:01:09;;;;;;;44.60;4.47;;;;;;;5.75;61.70;95053.69;5050092;28;20040;-64
2020/12/30 11:03:35;;;;;;;70.95;5.40;;;;;;;5.92;60.17;95051.00;5050591;28;20053;-67
2020/12/30 11:06:03;;;;;;;78.63;5.30;;;;;;;6.14;60.12;95047.28;5049869;28;20498;-65
2020/12/30 11:08:29;;;;;;;47.42;4.15;;;;;;;6.18;58.98;95052.88;5050586;28;20079;-65
2020/12/30 11:10:57;;;;;;;41.25;3.90;;;;;;;6.29;59.30;95056.81;5050238;28;20044;-65
2020/12/30 11:13:24;;;;;;;45.10;4.32;;;;;;;6.43;60.01;95049.31;5049992;28;20049;-65
2020/12/30 11:15:50;;;;;;;72.47;5.40;;;;;;;6.50;58.90;95046.09;5049986;28;20049;-64
2020/12/30 11:18:16;;;;;;;62.28;4.90;;;;;;;6.57;58.58;95048.28;5049960;28;20064;-65
2020/12/30 11:20:42;;;;;;;55.83;4.85;;;;;;;6.82;61.22;95052.81;5050229;28;20041;-65
2020/12/30 11:23:08;;;;;;;67.85;5.35;;;;;;;7.00;58.26;95054.31;5049692;28;20106;-65
2020/12/30 11:25:34;;;;;;;69.40;5.22;;;;;;;7.06;56.61;95050.28;5050312;28;20052;-65
2020/12/30 11:28:03;;;;;;;65.15;4.75;;;;;;;6.96;55.32;95047.97;5050172;28;20447;-65
2020/12/30 11:30:29;;;;;;;68.85;4.88;;;;;;;6.89;56.81;95057.69;5049606;28;20049;-65
2020/12/30 11:32:55;;;;;;;67.10;5.00;;;;;;;6.77;56.36;95056.47;5050144;28;20064;-66
2020/12/30 11:35:21;;;;;;;55.80;4.93;;;;;;;6.81;57.04;95056.63;5049539;28;20057;-65
2020/12/30 11:37:47;;;;;;;46.08;4.05;;;;;;;6.78;57.04;95059.97;5050098;28;20571;-65